sensor_id;sensor_type;location;lat;lon;timestamp;temperature;humidity
7218;DHT22;3650;53.580;10.094;2023-12-04T00:01:43;3.00;83.00
7218;DHT22;3650;53.580;10.094;2023-12-04T00:04:10;3.00;83.10
7218;DHT22;3650;53.580;10.094;2023-12-04T00:06:37;3.00;83.00
7218;DHT22;3650;53.580;10.094;2023-12-04T00:09:04;3.00;83.00
7218;DHT22;3650;53.580;10.094;2023-12-04T00:11:31;3.00;83.00
7218;DHT22;3650;53.580;10.094;2023-12-04T00:13:58;3.00;82.80
7218;DHT22;3650;53.580;10.094;2023-12-04T00:16:26;3.00;82.70
7218;DHT22;3650;53.580;10.094;2023-12-04T00:18:53;3.00;82.50
7218;DHT22;3650;53.580;10.094;2023-12-04T00:21:19;3.00;82.20
7218;DHT22;3650;53.580;10.094;2023-12-04T00:23:46;2.90;82.00
7218;DHT22;3650;53.580;10.094;2023-12-04T00:26:15;2.90;81.70
7218;DHT22;3650;53.580;10.094;2023-12-04T00:28:41;2.90;81.60
7218;DHT22;3650;53.580;10.094;2023-12-04T00:31:08;2.90;81.60
7218;DHT22;3650;53.580;10.094;2023-12-04T00:33:37;2.90;81.60
7218;DHT22;3650;53.580;10.094;2023-12-04T00:36:05;2.90;81.50
7218;DHT22;3650;53.580;10.094;2023-12-04T00:38:32;2.90;81.40
7218;DHT22;3650;53.580;10.094;2023-12-04T00:40:58;2.90;81.20
7218;DHT22;3650;53.580;10.094;2023-12-04T00:43:25;2.80;81.00
7218;DHT22;3650;53.580;10.094;2023-12-04T00:45:52;2.80;81.10
7218;DHT22;3650;53.580;10.094;2023-12-04T00:48:19;2.80;80.90
7218;DHT22;3650;53.580;10.094;2023-12-04T00:50:47;2.80;81.00
7218;DHT22;3650;53.580;10.094;2023-12-04T00:53:13;2.80;81.00
7218;DHT22;3650;53.580;10.094;2023-12-04T00:55:40;2.80;80.30
7218;DHT22;3650;53.580;10.094;2023-12-04T00:58:07;2.80;80.30
7218;DHT22;3650;53.580;10.094;2023-12-04T01:00:34;2.80;80.30
7218;DHT22;3650;53.580;10.094;2023-12-04T01:03:00;2.70;80.30
7218;DHT22;3650;53.580;10.094;2023-12-04T01:05:27;2.70;80.20
7218;DHT22;3650;53.580;10.094;2023-12-04T01:07:55;2.70;80.20
7218;DHT22;3650;53.580;10.094;2023-12-04T01:10:22;2.70;80.20
7218;DHT22;3650;53.580;10.094;2023-12-04T01:12:49;2.70;79.60
7218;DHT22;3650;53.580;10.094;2023-12-04T01:15:16;2.70;79.60
7218;DHT22;3650;53.580;10.094;2023-12-04T01:17:43;2.70;79.60
7218;DHT22;3650;53.580;10.094;2023-12-04T01:20:11;2.70;79.60
7218;DHT22;3650;53.580;10.094;2023-12-04T01:22:38;2.60;78.80
7218;DHT22;3650;53.580;10.094;2023-12-04T01:25:08;2.70;78.50
7218;DHT22;3650;53.580;10.094;2023-12-04T01:27:35;2.70;78.40
7218;DHT22;3650;53.580;10.094;2023-12-04T01:30:04;2.70;78.20
7218;DHT22;3650;53.580;10.094;2023-12-04T01:32:30;2.70;78.20
7218;DHT22;3650;53.580;10.094;2023-12-04T01:34:57;2.70;77.80
7218;DHT22;3650;53.580;10.094;2023-12-04T01:37:24;2.60;77.50
7218;DHT22;3650;53.580;10.094;2023-12-04T01:39:51;2.70;77.40
7218;DHT22;3650;53.580;10.094;2023-12-04T01:42:19;2.70;77.30
7218;DHT22;3650;53.580;10.094;2023-12-04T01:44:46;2.70;77.10
7218;DHT22;3650;53.580;10.094;2023-12-04T01:47:13;2.70;77.00
7218;DHT22;3650;53.580;10.094;2023-12-04T01:49:40;2.60;77.20
7218;DHT22;3650;53.580;10.094;2023-12-04T01:52:07;2.60;77.30
7218;DHT22;3650;53.580;10.094;2023-12-04T01:54:33;2.60;77.30
7218;DHT22;3650;53.580;10.094;2023-12-04T01:57:01;2.60;77.50
7218;DHT22;3650;53.580;10.094;2023-12-04T01:59:30;2.60;77.50
7218;DHT22;3650;53.580;10.094;2023-12-04T02:01:57;2.60;77.40
7218;DHT22;3650;53.580;10.094;2023-12-04T02:04:25;2.60;77.10
7218;DHT22;3650;53.580;10.094;2023-12-04T02:06:52;2.60;77.10
7218;DHT22;3650;53.580;10.094;2023-12-04T02:09:19;2.60;77.20
7218;DHT22;3650;53.580;10.094;2023-12-04T02:11:46;2.60;77.10
7218;DHT22;3650;53.580;10.094;2023-12-04T02:14:12;2.50;77.10
7218;DHT22;3650;53.580;10.094;2023-12-04T02:16:42;2.50;77.20
7218;DHT22;3650;53.580;10.094;2023-12-04T02:19:11;2.50;77.20
7218;DHT22;3650;53.580;10.094;2023-12-04T02:21:38;2.50;77.50
7218;DHT22;3650;53.580;10.094;2023-12-04T02:24:06;2.50;77.50
7218;DHT22;3650;53.580;10.094;2023-12-04T02:26:37;2.50;77.20
7218;DHT22;3650;53.580;10.094;2023-12-04T02:29:08;2.50;77.00
7218;DHT22;3650;53.580;10.094;2023-12-04T02:31:39;2.50;77.00
7218;DHT22;3650;53.580;10.094;2023-12-04T02:34:08;2.50;77.00
7218;DHT22;3650;53.580;10.094;2023-12-04T02:36:36;2.50;76.60
7218;DHT22;3650;53.580;10.094;2023-12-04T02:39:06;2.50;76.70
7218;DHT22;3650;53.580;10.094;2023-12-04T02:41:33;2.40;76.70
7218;DHT22;3650;53.580;10.094;2023-12-04T02:43:59;2.40;76.70
7218;DHT22;3650;53.580;10.094;2023-12-04T02:46:26;2.40;76.60
7218;DHT22;3650;53.580;10.094;2023-12-04T02:48:53;2.40;76.50
7218;DHT22;3650;53.580;10.094;2023-12-04T02:51:20;2.40;76.70
7218;DHT22;3650;53.580;10.094;2023-12-04T02:53:46;2.40;76.50
7218;DHT22;3650;53.580;10.094;2023-12-04T02:56:14;2.40;76.40
7218;DHT22;3650;53.580;10.094;2023-12-04T02:58:42;2.40;76.50
7218;DHT22;3650;53.580;10.094;2023-12-04T03:01:09;2.40;76.40
7218;DHT22;3650;53.580;10.094;2023-12-04T03:03:36;2.40;76.30
7218;DHT22;3650;53.580;10.094;2023-12-04T03:06:03;2.40;76.30
7218;DHT22;3650;53.580;10.094;2023-12-04T03:08:29;2.40;76.30
7218;DHT22;3650;53.580;10.094;2023-12-04T03:10:56;2.40;76.50
7218;DHT22;3650;53.580;10.094;2023-12-04T03:13:24;2.30;76.60
7218;DHT22;3650;53.580;10.094;2023-12-04T03:15:51;2.30;76.70
7218;DHT22;3650;53.580;10.094;2023-12-04T03:18:18;2.30;76.60
7218;DHT22;3650;53.580;10.094;2023-12-04T03:20:45;2.30;76.50
7218;DHT22;3650;53.580;10.094;2023-12-04T03:23:11;2.30;76.50
7218;DHT22;3650;53.580;10.094;2023-12-04T03:25:38;2.30;76.50
7218;DHT22;3650;53.580;10.094;2023-12-04T03:28:05;2.30;76.50
7218;DHT22;3650;53.580;10.094;2023-12-04T03:30:33;2.30;76.50
7218;DHT22;3650;53.580;10.094;2023-12-04T03:33:00;2.30;76.50
7218;DHT22;3650;53.580;10.094;2023-12-04T03:35:27;2.30;76.30
7218;DHT22;3650;53.580;10.094;2023-12-04T03:37:53;2.30;76.30
7218;DHT22;3650;53.580;10.094;2023-12-04T03:40:20;2.30;76.20
7218;DHT22;3650;53.580;10.094;2023-12-04T03:42:47;2.30;76.00
7218;DHT22;3650;53.580;10.094;2023-12-04T03:45:14;2.30;75.90
7218;DHT22;3650;53.580;10.094;2023-12-04T03:47:42;2.30;75.90
7218;DHT22;3650;53.580;10.094;2023-12-04T03:50:09;2.30;75.90
7218;DHT22;3650;53.580;10.094;2023-12-04T03:52:36;2.30;76.00
7218;DHT22;3650;53.580;10.094;2023-12-04T03:55:03;2.30;75.90
7218;DHT22;3650;53.580;10.094;2023-12-04T03:57:30;2.30;76.00
7218;DHT22;3650;53.580;10.094;2023-12-04T03:59:57;2.30;76.00
7218;DHT22;3650;53.580;10.094;2023-12-04T04:02:24;2.40;75.80
7218;DHT22;3650;53.580;10.094;2023-12-04T04:04:52;2.30;75.50
7218;DHT22;3650;53.580;10.094;2023-12-04T04:07:19;2.30;75.40
7218;DHT22;3650;53.580;10.094;2023-12-04T04:09:46;2.30;75.50
7218;DHT22;3650;53.580;10.094;2023-12-04T04:12:13;2.30;75.30
7218;DHT22;3650;53.580;10.094;2023-12-04T04:14:39;2.30;75.40
7218;DHT22;3650;53.580;10.094;2023-12-04T04:17:06;2.30;75.20
7218;DHT22;3650;53.580;10.094;2023-12-04T04:19:33;2.30;75.20
7218;DHT22;3650;53.580;10.094;2023-12-04T04:22:01;2.20;75.00
7218;DHT22;3650;53.580;10.094;2023-12-04T04:24:28;2.20;74.90
7218;DHT22;3650;53.580;10.094;2023-12-04T04:26:55;2.20;74.80
7218;DHT22;3650;53.580;10.094;2023-12-04T04:29:22;2.20;75.10
7218;DHT22;3650;53.580;10.094;2023-12-04T04:31:48;2.20;75.30
7218;DHT22;3650;53.580;10.094;2023-12-04T04:34:15;2.20;75.20
7218;DHT22;3650;53.580;10.094;2023-12-04T04:36:42;2.20;74.80
7218;DHT22;3650;53.580;10.094;2023-12-04T04:41:39;2.20;74.60
7218;DHT22;3650;53.580;10.094;2023-12-04T04:44:06;2.20;74.40
7218;DHT22;3650;53.580;10.094;2023-12-04T04:46:32;2.20;74.20
7218;DHT22;3650;53.580;10.094;2023-12-04T04:48:59;2.10;74.20
7218;DHT22;3650;53.580;10.094;2023-12-04T04:51:27;2.10;74.40
7218;DHT22;3650;53.580;10.094;2023-12-04T04:53:55;2.20;74.70
7218;DHT22;3650;53.580;10.094;2023-12-04T04:56:23;2.10;74.80
7218;DHT22;3650;53.580;10.094;2023-12-04T04:58:50;2.10;75.00
7218;DHT22;3650;53.580;10.094;2023-12-04T05:01:16;2.10;75.50
7218;DHT22;3650;53.580;10.094;2023-12-04T05:03:43;2.10;75.60
7218;DHT22;3650;53.580;10.094;2023-12-04T05:06:10;2.20;75.80
7218;DHT22;3650;53.580;10.094;2023-12-04T05:08:37;2.10;75.50
7218;DHT22;3650;53.580;10.094;2023-12-04T05:11:04;2.10;75.90
7218;DHT22;3650;53.580;10.094;2023-12-04T05:13:32;2.10;75.80
7218;DHT22;3650;53.580;10.094;2023-12-04T05:15:59;2.10;76.00
7218;DHT22;3650;53.580;10.094;2023-12-04T05:18:26;2.20;76.30
7218;DHT22;3650;53.580;10.094;2023-12-04T05:20:52;2.20;76.60
7218;DHT22;3650;53.580;10.094;2023-12-04T05:23:19;2.20;76.80
7218;DHT22;3650;53.580;10.094;2023-12-04T05:25:46;2.30;76.80
7218;DHT22;3650;53.580;10.094;2023-12-04T05:28:13;2.30;76.70
7218;DHT22;3650;53.580;10.094;2023-12-04T05:30:41;2.30;76.10
7218;DHT22;3650;53.580;10.094;2023-12-04T05:33:07;2.30;76.50
7218;DHT22;3650;53.580;10.094;2023-12-04T05:35:34;2.30;76.90
7218;DHT22;3650;53.580;10.094;2023-12-04T05:38:02;2.30;77.00
7218;DHT22;3650;53.580;10.094;2023-12-04T05:40:29;2.30;77.00
7218;DHT22;3650;53.580;10.094;2023-12-04T05:42:56;2.30;77.00
7218;DHT22;3650;53.580;10.094;2023-12-04T05:45:23;2.30;77.00
7218;DHT22;3650;53.580;10.094;2023-12-04T05:47:51;2.40;77.20
7218;DHT22;3650;53.580;10.094;2023-12-04T05:50:19;2.40;76.90
7218;DHT22;3650;53.580;10.094;2023-12-04T05:52:45;2.30;76.40
7218;DHT22;3650;53.580;10.094;2023-12-04T05:55:12;2.40;76.90
7218;DHT22;3650;53.580;10.094;2023-12-04T05:57:39;2.40;76.80
7218;DHT22;3650;53.580;10.094;2023-12-04T06:00:07;2.40;76.90
7218;DHT22;3650;53.580;10.094;2023-12-04T06:02:37;2.50;76.60
7218;DHT22;3650;53.580;10.094;2023-12-04T06:05:06;2.50;76.60
7218;DHT22;3650;53.580;10.094;2023-12-04T06:07:34;2.40;76.40
7218;DHT22;3650;53.580;10.094;2023-12-04T06:10:01;2.50;76.60
7218;DHT22;3650;53.580;10.094;2023-12-04T06:12:28;2.50;77.20
7218;DHT22;3650;53.580;10.094;2023-12-04T06:14:55;2.60;77.60
7218;DHT22;3650;53.580;10.094;2023-12-04T06:17:21;2.60;77.40
7218;DHT22;3650;53.580;10.094;2023-12-04T06:19:49;2.60;76.90
7218;DHT22;3650;53.580;10.094;2023-12-04T06:22:18;2.60;76.60
7218;DHT22;3650;53.580;10.094;2023-12-04T06:24:47;2.60;76.40
7218;DHT22;3650;53.580;10.094;2023-12-04T06:27:16;2.60;76.70
7218;DHT22;3650;53.580;10.094;2023-12-04T06:29:46;2.60;77.00
7218;DHT22;3650;53.580;10.094;2023-12-04T06:32:13;2.70;77.10
7218;DHT22;3650;53.580;10.094;2023-12-04T06:34:42;2.70;76.90
7218;DHT22;3650;53.580;10.094;2023-12-04T06:37:14;2.70;76.90
7218;DHT22;3650;53.580;10.094;2023-12-04T06:39:45;2.70;77.00
7218;DHT22;3650;53.580;10.094;2023-12-04T06:42:14;2.70;77.50
7218;DHT22;3650;53.580;10.094;2023-12-04T06:44:41;2.70;77.50
7218;DHT22;3650;53.580;10.094;2023-12-04T06:47:09;2.70;77.50
7218;DHT22;3650;53.580;10.094;2023-12-04T06:49:38;2.70;78.00
7218;DHT22;3650;53.580;10.094;2023-12-04T06:52:06;2.70;77.90
7218;DHT22;3650;53.580;10.094;2023-12-04T06:54:33;2.70;78.00
7218;DHT22;3650;53.580;10.094;2023-12-04T06:57:02;2.70;78.10
7218;DHT22;3650;53.580;10.094;2023-12-04T06:59:30;2.70;78.30
7218;DHT22;3650;53.580;10.094;2023-12-04T07:01:57;2.70;78.00
7218;DHT22;3650;53.580;10.094;2023-12-04T07:04:25;2.70;78.00
7218;DHT22;3650;53.580;10.094;2023-12-04T07:06:52;2.70;78.00
7218;DHT22;3650;53.580;10.094;2023-12-04T07:09:19;2.70;78.00
7218;DHT22;3650;53.580;10.094;2023-12-04T07:11:46;2.70;78.00
7218;DHT22;3650;53.580;10.094;2023-12-04T07:14:15;2.70;78.50
7218;DHT22;3650;53.580;10.094;2023-12-04T07:16:43;2.60;79.00
7218;DHT22;3650;53.580;10.094;2023-12-04T07:19:11;2.60;79.60
7218;DHT22;3650;53.580;10.094;2023-12-04T07:21:40;2.60;80.00
7218;DHT22;3650;53.580;10.094;2023-12-04T07:24:08;2.60;80.00
7218;DHT22;3650;53.580;10.094;2023-12-04T07:26:35;2.60;80.10
7218;DHT22;3650;53.580;10.094;2023-12-04T07:29:02;2.70;80.20
7218;DHT22;3650;53.580;10.094;2023-12-04T07:31:33;2.60;80.10
7218;DHT22;3650;53.580;10.094;2023-12-04T07:34:00;2.60;80.10
7218;DHT22;3650;53.580;10.094;2023-12-04T07:36:27;2.60;80.60
7218;DHT22;3650;53.580;10.094;2023-12-04T07:38:54;2.60;80.80
7218;DHT22;3650;53.580;10.094;2023-12-04T07:41:22;2.60;81.30
7218;DHT22;3650;53.580;10.094;2023-12-04T07:43:50;2.60;81.50
7218;DHT22;3650;53.580;10.094;2023-12-04T07:46:17;2.60;81.50
7218;DHT22;3650;53.580;10.094;2023-12-04T07:48:45;2.60;81.60
7218;DHT22;3650;53.580;10.094;2023-12-04T07:51:13;2.60;81.40
7218;DHT22;3650;53.580;10.094;2023-12-04T07:53:40;2.60;81.80
7218;DHT22;3650;53.580;10.094;2023-12-04T07:56:08;2.60;82.20
7218;DHT22;3650;53.580;10.094;2023-12-04T07:58:35;2.60;82.30
7218;DHT22;3650;53.580;10.094;2023-12-04T08:01:02;2.60;82.20
7218;DHT22;3650;53.580;10.094;2023-12-04T08:03:30;2.60;82.50
7218;DHT22;3650;53.580;10.094;2023-12-04T08:05:59;2.60;82.50
7218;DHT22;3650;53.580;10.094;2023-12-04T08:08:26;2.60;82.40
7218;DHT22;3650;53.580;10.094;2023-12-04T08:10:54;2.60;82.40
7218;DHT22;3650;53.580;10.094;2023-12-04T08:13:20;2.60;82.50
7218;DHT22;3650;53.580;10.094;2023-12-04T08:15:48;2.60;82.50
7218;DHT22;3650;53.580;10.094;2023-12-04T08:18:16;2.60;82.60
7218;DHT22;3650;53.580;10.094;2023-12-04T08:20:43;2.60;82.80
7218;DHT22;3650;53.580;10.094;2023-12-04T08:23:12;2.60;83.30
7218;DHT22;3650;53.580;10.094;2023-12-04T08:25:40;2.60;83.50
7218;DHT22;3650;53.580;10.094;2023-12-04T08:28:08;2.80;83.70
7218;DHT22;3650;53.580;10.094;2023-12-04T08:30:35;2.60;83.80
7218;DHT22;3650;53.580;10.094;2023-12-04T08:33:02;2.60;84.00
7218;DHT22;3650;53.580;10.094;2023-12-04T08:35:29;2.70;84.20
7218;DHT22;3650;53.580;10.094;2023-12-04T08:37:57;2.70;84.30
7218;DHT22;3650;53.580;10.094;2023-12-04T08:40:25;2.60;84.40
7218;DHT22;3650;53.580;10.094;2023-12-04T08:42:52;2.70;84.70
7218;DHT22;3650;53.580;10.094;2023-12-04T08:45:19;2.60;84.60
7218;DHT22;3650;53.580;10.094;2023-12-04T08:47:48;2.70;84.90
7218;DHT22;3650;53.580;10.094;2023-12-04T08:50:16;2.60;85.20
7218;DHT22;3650;53.580;10.094;2023-12-04T08:52:43;2.70;85.00
7218;DHT22;3650;53.580;10.094;2023-12-04T08:55:10;2.70;85.40
7218;DHT22;3650;53.580;10.094;2023-12-04T08:57:38;2.70;85.60
7218;DHT22;3650;53.580;10.094;2023-12-04T09:00:06;2.70;85.50
7218;DHT22;3650;53.580;10.094;2023-12-04T09:02:35;2.70;85.50
7218;DHT22;3650;53.580;10.094;2023-12-04T09:05:03;2.70;86.00
7218;DHT22;3650;53.580;10.094;2023-12-04T09:07:29;2.70;86.50
7218;DHT22;3650;53.580;10.094;2023-12-04T09:09:57;2.70;86.70
7218;DHT22;3650;53.580;10.094;2023-12-04T09:12:24;2.70;86.80
7218;DHT22;3650;53.580;10.094;2023-12-04T09:14:54;2.80;87.00
7218;DHT22;3650;53.580;10.094;2023-12-04T09:17:21;2.80;87.00
7218;DHT22;3650;53.580;10.094;2023-12-04T09:19:49;2.80;86.90
7218;DHT22;3650;53.580;10.094;2023-12-04T09:22:18;2.80;86.90
7218;DHT22;3650;53.580;10.094;2023-12-04T09:24:45;2.80;87.00
7218;DHT22;3650;53.580;10.094;2023-12-04T09:27:13;2.80;87.40
7218;DHT22;3650;53.580;10.094;2023-12-04T09:29:41;2.80;87.60
7218;DHT22;3650;53.580;10.094;2023-12-04T09:32:10;2.80;87.60
7218;DHT22;3650;53.580;10.094;2023-12-04T09:34:37;2.80;87.80
7218;DHT22;3650;53.580;10.094;2023-12-04T09:37:05;2.90;87.70
7218;DHT22;3650;53.580;10.094;2023-12-04T09:39:33;2.90;87.80
7218;DHT22;3650;53.580;10.094;2023-12-04T09:42:01;2.90;88.00
7218;DHT22;3650;53.580;10.094;2023-12-04T09:44:30;2.70;88.10
7218;DHT22;3650;53.580;10.094;2023-12-04T09:46:58;2.90;88.50
7218;DHT22;3650;53.580;10.094;2023-12-04T09:49:28;2.90;88.70
7218;DHT22;3650;53.580;10.094;2023-12-04T09:51:57;2.90;88.50
7218;DHT22;3650;53.580;10.094;2023-12-04T09:54:25;2.90;88.40
7218;DHT22;3650;53.580;10.094;2023-12-04T09:56:52;2.90;88.50
7218;DHT22;3650;53.580;10.094;2023-12-04T09:59:21;2.90;88.40
7218;DHT22;3650;53.580;10.094;2023-12-04T10:01:51;2.90;88.60
7218;DHT22;3650;53.580;10.094;2023-12-04T10:04:19;3.00;88.70
7218;DHT22;3650;53.580;10.094;2023-12-04T10:06:50;3.00;88.60
7218;DHT22;3650;53.580;10.094;2023-12-04T10:09:18;3.00;87.80
7218;DHT22;3650;53.580;10.094;2023-12-04T10:11:50;2.90;87.70
7218;DHT22;3650;53.580;10.094;2023-12-04T10:14:18;3.00;87.90
7218;DHT22;3650;53.580;10.094;2023-12-04T10:16:45;2.90;87.90
7218;DHT22;3650;53.580;10.094;2023-12-04T10:19:17;2.90;88.00
7218;DHT22;3650;53.580;10.094;2023-12-04T10:21:45;3.00;87.80
7218;DHT22;3650;53.580;10.094;2023-12-04T10:24:27;2.90;87.10
7218;DHT22;3650;53.580;10.094;2023-12-04T10:26:54;3.00;87.50
7218;DHT22;3650;53.580;10.094;2023-12-04T10:29:22;3.00;87.60
7218;DHT22;3650;53.580;10.094;2023-12-04T10:31:50;3.00;87.70
7218;DHT22;3650;53.580;10.094;2023-12-04T10:34:18;3.00;87.30
7218;DHT22;3650;53.580;10.094;2023-12-04T10:36:47;3.00;87.40
7218;DHT22;3650;53.580;10.094;2023-12-04T10:39:15;3.00;87.40
7218;DHT22;3650;53.580;10.094;2023-12-04T10:41:47;3.00;87.30
7218;DHT22;3650;53.580;10.094;2023-12-04T10:44:25;3.00;87.00
7218;DHT22;3650;53.580;10.094;2023-12-04T10:46:52;3.10;87.20
7218;DHT22;3650;53.580;10.094;2023-12-04T10:49:20;3.00;86.50
7218;DHT22;3650;53.580;10.094;2023-12-04T10:51:48;3.00;86.10
7218;DHT22;3650;53.580;10.094;2023-12-04T10:54:17;3.00;86.30
7218;DHT22;3650;53.580;10.094;2023-12-04T10:56:46;3.10;86.30
7218;DHT22;3650;53.580;10.094;2023-12-04T10:59:21;3.00;86.30
7218;DHT22;3650;53.580;10.094;2023-12-04T11:01:51;3.10;86.30
7218;DHT22;3650;53.580;10.094;2023-12-04T11:04:23;3.10;86.10
7218;DHT22;3650;53.580;10.094;2023-12-04T11:06:52;3.10;85.90
7218;DHT22;3650;53.580;10.094;2023-12-04T11:09:22;3.10;85.50
7218;DHT22;3650;53.580;10.094;2023-12-04T11:11:56;3.10;85.20
7218;DHT22;3650;53.580;10.094;2023-12-04T11:14:26;3.20;85.30
7218;DHT22;3650;53.580;10.094;2023-12-04T11:17:01;3.20;85.20
7218;DHT22;3650;53.580;10.094;2023-12-04T11:19:38;3.20;85.00
7218;DHT22;3650;53.580;10.094;2023-12-04T11:22:07;3.20;84.50
7218;DHT22;3650;53.580;10.094;2023-12-04T11:24:36;3.20;84.30
7218;DHT22;3650;53.580;10.094;2023-12-04T11:27:04;3.20;84.10
7218;DHT22;3650;53.580;10.094;2023-12-04T11:29:31;3.30;84.10
7218;DHT22;3650;53.580;10.094;2023-12-04T11:31:59;3.20;83.70
7218;DHT22;3650;53.580;10.094;2023-12-04T11:34:27;3.20;83.40
7218;DHT22;3650;53.580;10.094;2023-12-04T11:36:58;3.20;82.90
7218;DHT22;3650;53.580;10.094;2023-12-04T11:39:26;3.20;83.00
7218;DHT22;3650;53.580;10.094;2023-12-04T11:41:55;3.20;83.00
7218;DHT22;3650;53.580;10.094;2023-12-04T11:44:23;3.20;82.60
7218;DHT22;3650;53.580;10.094;2023-12-04T11:47:04;3.30;82.90
7218;DHT22;3650;53.580;10.094;2023-12-04T11:49:31;3.30;82.90
7218;DHT22;3650;53.580;10.094;2023-12-04T11:52:01;3.30;82.90
7218;DHT22;3650;53.580;10.094;2023-12-04T11:54:56;3.30;82.80
7218;DHT22;3650;53.580;10.094;2023-12-04T11:57:26;3.30;82.50
7218;DHT22;3650;53.580;10.094;2023-12-04T12:00:08;3.30;82.40
7218;DHT22;3650;53.580;10.094;2023-12-04T12:02:38;3.30;82.30
7218;DHT22;3650;53.580;10.094;2023-12-04T12:05:06;3.30;81.60
7218;DHT22;3650;53.580;10.094;2023-12-04T12:07:34;3.30;81.90
7218;DHT22;3650;53.580;10.094;2023-12-04T12:10:01;3.30;81.80
7218;DHT22;3650;53.580;10.094;2023-12-04T12:12:31;3.40;81.70
7218;DHT22;3650;53.580;10.094;2023-12-04T12:14:59;3.30;81.20
7218;DHT22;3650;53.580;10.094;2023-12-04T12:17:26;3.40;81.00
7218;DHT22;3650;53.580;10.094;2023-12-04T12:19:55;3.40;81.20
7218;DHT22;3650;53.580;10.094;2023-12-04T12:22:23;3.40;81.10
7218;DHT22;3650;53.580;10.094;2023-12-04T12:24:50;3.40;80.70
7218;DHT22;3650;53.580;10.094;2023-12-04T12:27:17;3.40;80.70
7218;DHT22;3650;53.580;10.094;2023-12-04T12:29:47;3.40;80.70
7218;DHT22;3650;53.580;10.094;2023-12-04T12:32:15;3.40;80.70
7218;DHT22;3650;53.580;10.094;2023-12-04T12:34:42;3.40;80.70
7218;DHT22;3650;53.580;10.094;2023-12-04T12:37:09;3.40;80.70
7218;DHT22;3650;53.580;10.094;2023-12-04T12:39:37;3.40;80.50
7218;DHT22;3650;53.580;10.094;2023-12-04T12:42:05;3.40;80.30
7218;DHT22;3650;53.580;10.094;2023-12-04T12:44:38;3.40;80.20
7218;DHT22;3650;53.580;10.094;2023-12-04T12:47:08;3.40;80.10
7218;DHT22;3650;53.580;10.094;2023-12-04T12:49:35;3.40;79.70
7218;DHT22;3650;53.580;10.094;2023-12-04T12:52:04;3.40;79.60
7218;DHT22;3650;53.580;10.094;2023-12-04T12:54:32;3.40;80.00
7218;DHT22;3650;53.580;10.094;2023-12-04T12:57:01;3.40;80.20
7218;DHT22;3650;53.580;10.094;2023-12-04T12:59:29;3.40;80.40
7218;DHT22;3650;53.580;10.094;2023-12-04T13:01:56;3.40;80.50
7218;DHT22;3650;53.580;10.094;2023-12-04T13:04:33;3.40;80.50
7218;DHT22;3650;53.580;10.094;2023-12-04T13:07:01;3.40;80.20
7218;DHT22;3650;53.580;10.094;2023-12-04T13:09:29;3.50;80.50
7218;DHT22;3650;53.580;10.094;2023-12-04T13:11:56;3.40;80.80
7218;DHT22;3650;53.580;10.094;2023-12-04T13:14:25;3.40;80.70
7218;DHT22;3650;53.580;10.094;2023-12-04T13:16:53;3.40;80.70
7218;DHT22;3650;53.580;10.094;2023-12-04T13:19:21;3.40;80.50
7218;DHT22;3650;53.580;10.094;2023-12-04T13:21:50;3.40;80.50
7218;DHT22;3650;53.580;10.094;2023-12-04T13:24:18;3.40;80.40
7218;DHT22;3650;53.580;10.094;2023-12-04T13:26:45;3.40;80.20
7218;DHT22;3650;53.580;10.094;2023-12-04T13:29:12;3.50;80.40
7218;DHT22;3650;53.580;10.094;2023-12-04T13:31:42;3.40;80.10
7218;DHT22;3650;53.580;10.094;2023-12-04T13:34:09;3.50;80.10
7218;DHT22;3650;53.580;10.094;2023-12-04T13:36:37;3.50;80.10
7218;DHT22;3650;53.580;10.094;2023-12-04T13:39:07;3.50;80.20
7218;DHT22;3650;53.580;10.094;2023-12-04T13:41:43;3.40;80.40
7218;DHT22;3650;53.580;10.094;2023-12-04T13:44:28;3.40;80.70
7218;DHT22;3650;53.580;10.094;2023-12-04T13:46:55;3.50;80.80
7218;DHT22;3650;53.580;10.094;2023-12-04T13:49:22;3.40;80.70
7218;DHT22;3650;53.580;10.094;2023-12-04T13:51:49;3.50;80.80
7218;DHT22;3650;53.580;10.094;2023-12-04T13:54:17;3.50;80.80
7218;DHT22;3650;53.580;10.094;2023-12-04T13:56:47;3.50;80.80
7218;DHT22;3650;53.580;10.094;2023-12-04T13:59:22;3.50;80.80
7218;DHT22;3650;53.580;10.094;2023-12-04T14:01:50;3.40;80.70
7218;DHT22;3650;53.580;10.094;2023-12-04T14:04:18;3.40;80.70
7218;DHT22;3650;53.580;10.094;2023-12-04T14:06:45;3.50;80.80
7218;DHT22;3650;53.580;10.094;2023-12-04T14:09:13;3.50;80.80
7218;DHT22;3650;53.580;10.094;2023-12-04T14:11:43;3.50;80.80
7218;DHT22;3650;53.580;10.094;2023-12-04T14:14:11;3.40;80.70
7218;DHT22;3650;53.580;10.094;2023-12-04T14:16:39;3.50;80.80
7218;DHT22;3650;53.580;10.094;2023-12-04T14:19:09;3.40;80.70
7218;DHT22;3650;53.580;10.094;2023-12-04T14:21:38;3.40;80.80
7218;DHT22;3650;53.580;10.094;2023-12-04T14:24:05;3.40;80.80
7218;DHT22;3650;53.580;10.094;2023-12-04T14:26:32;3.50;80.80
7218;DHT22;3650;53.580;10.094;2023-12-04T14:29:01;3.50;80.80
7218;DHT22;3650;53.580;10.094;2023-12-04T14:31:29;3.40;80.70
7218;DHT22;3650;53.580;10.094;2023-12-04T14:33:56;3.50;80.80
7218;DHT22;3650;53.580;10.094;2023-12-04T14:36:24;3.40;80.70
7218;DHT22;3650;53.580;10.094;2023-12-04T14:38:52;3.40;80.70
7218;DHT22;3650;53.580;10.094;2023-12-04T14:41:19;3.50;80.80
7218;DHT22;3650;53.580;10.094;2023-12-04T14:43:46;3.50;80.60
7218;DHT22;3650;53.580;10.094;2023-12-04T14:46:15;3.40;80.30
7218;DHT22;3650;53.580;10.094;2023-12-04T14:48:42;3.40;80.70
7218;DHT22;3650;53.580;10.094;2023-12-04T14:51:11;3.40;80.70
7218;DHT22;3650;53.580;10.094;2023-12-04T14:53:38;3.40;80.70
7218;DHT22;3650;53.580;10.094;2023-12-04T14:56:13;3.40;80.70
7218;DHT22;3650;53.580;10.094;2023-12-04T14:58:57;3.40;80.70
7218;DHT22;3650;53.580;10.094;2023-12-04T15:01:46;3.40;80.60
7218;DHT22;3650;53.580;10.094;2023-12-04T15:04:27;3.40;80.70
7218;DHT22;3650;53.580;10.094;2023-12-04T15:07:12;3.40;80.40
7218;DHT22;3650;53.580;10.094;2023-12-04T15:10:09;3.40;80.20
7218;DHT22;3650;53.580;10.094;2023-12-04T15:12:54;3.40;80.20
7218;DHT22;3650;53.580;10.094;2023-12-04T15:15:35;3.40;80.40
7218;DHT22;3650;53.580;10.094;2023-12-04T15:18:28;3.30;79.90
7218;DHT22;3650;53.580;10.094;2023-12-04T15:21:04;3.30;79.80
7218;DHT22;3650;53.580;10.094;2023-12-04T15:23:32;3.40;80.20
7218;DHT22;3650;53.580;10.094;2023-12-04T15:25:59;3.30;80.40
7218;DHT22;3650;53.580;10.094;2023-12-04T15:28:27;3.30;80.20
7218;DHT22;3650;53.580;10.094;2023-12-04T15:30:54;3.40;80.60
7218;DHT22;3650;53.580;10.094;2023-12-04T15:33:21;3.30;80.00
7218;DHT22;3650;53.580;10.094;2023-12-04T15:35:52;3.30;79.90
7218;DHT22;3650;53.580;10.094;2023-12-04T15:38:20;3.30;80.10
7218;DHT22;3650;53.580;10.094;2023-12-04T15:40:47;3.30;79.70
7218;DHT22;3650;53.580;10.094;2023-12-04T15:43:14;3.40;79.70
7218;DHT22;3650;53.580;10.094;2023-12-04T15:45:41;3.30;79.50
7218;DHT22;3650;53.580;10.094;2023-12-04T15:48:08;3.30;79.30
7218;DHT22;3650;53.580;10.094;2023-12-04T15:50:35;3.40;79.30
7218;DHT22;3650;53.580;10.094;2023-12-04T15:53:03;3.30;79.30
7218;DHT22;3650;53.580;10.094;2023-12-04T15:55:31;3.40;79.30
7218;DHT22;3650;53.580;10.094;2023-12-04T15:57:57;3.30;79.00
7218;DHT22;3650;53.580;10.094;2023-12-04T16:00:25;3.30;79.00
7218;DHT22;3650;53.580;10.094;2023-12-04T16:02:52;3.30;79.00
7218;DHT22;3650;53.580;10.094;2023-12-04T16:05:20;3.30;79.10
7218;DHT22;3650;53.580;10.094;2023-12-04T16:07:48;3.40;79.10
7218;DHT22;3650;53.580;10.094;2023-12-04T16:10:17;3.30;78.70
7218;DHT22;3650;53.580;10.094;2023-12-04T16:12:45;3.30;78.50